NXCC EGKK-EDDF
Flight info
| Callsign | NXCC |
|---|---|
| Flight time | 1h 13m |
| Altitude | 31000 |
| Route | DVR2P DVR UL9 KONAN UL607 KOK DCT REMBA UL607 SPI T180 NIVNU T847 IMCOM IMCOM1B |
| Aircraft | C25C/M-SDE2E3FGHRWXY/LB1 |
Departure
| Time | 2026-05-04 15:54 |
|---|---|
| Airport | London Gatwick Airport (EGKK) |
Arrival
| Time | 2026-05-04 17:07 |
|---|---|
| Airport | Frankfurt Main Airport (EDDF) |
| Time | Latitude | Longitude | Altitude | Speed | Heading |
|---|---|---|---|---|---|
| 2026-05-04 15:32 | 51.15473 | -0.17083 | 199 ft | 0 kts | 348° |
| 2026-05-04 15:38 | 51.15472 | -0.17082 | 226 ft | 2 kts | 348° |
| 2026-05-04 15:38 | 51.15455 | -0.17076 | 203 ft | 3 kts | 348° |
| 2026-05-04 15:39 | 51.15437 | -0.17070 | 199 ft | 3 kts | 348° |
| 2026-05-04 15:39 | 51.15419 | -0.17064 | 199 ft | 3 kts | 348° |
| 2026-05-04 15:39 | 51.15409 | -0.17061 | 199 ft | 0 kts | 348° |
| 2026-05-04 15:44 | 51.15410 | -0.17063 | 199 ft | 1 kts | 322° |
| 2026-05-04 15:44 | 51.15409 | -0.17081 | 199 ft | 0 kts | 253° |
| 2026-05-04 15:45 | 51.15402 | -0.17124 | 199 ft | 11 kts | 251° |
| 2026-05-04 15:46 | 51.15368 | -0.17264 | 201 ft | 16 kts | 252° |
| 2026-05-04 15:46 | 51.15310 | -0.17380 | 200 ft | 14 kts | 224° |
| 2026-05-04 15:46 | 51.15283 | -0.17546 | 198 ft | 18 kts | 257° |
| 2026-05-04 15:46 | 51.15253 | -0.17761 | 201 ft | 22 kts | 257° |
| 2026-05-04 15:47 | 51.15219 | -0.18012 | 198 ft | 25 kts | 258° |
| 2026-05-04 15:47 | 51.15179 | -0.18303 | 198 ft | 29 kts | 259° |
| 2026-05-04 15:47 | 51.15139 | -0.18619 | 203 ft | 29 kts | 258° |
| 2026-05-04 15:47 | 51.15096 | -0.18939 | 198 ft | 30 kts | 258° |
| 2026-05-04 15:48 | 51.15053 | -0.19256 | 201 ft | 29 kts | 258° |
| 2026-05-04 15:48 | 51.15011 | -0.19566 | 203 ft | 28 kts | 257° |
| 2026-05-04 15:48 | 51.14930 | -0.20153 | 198 ft | 27 kts | 257° |
| 2026-05-04 15:49 | 51.14891 | -0.20437 | 197 ft | 26 kts | 257° |
| 2026-05-04 15:49 | 51.14853 | -0.20713 | 202 ft | 25 kts | 257° |
| 2026-05-04 15:49 | 51.14817 | -0.20975 | 198 ft | 22 kts | 257° |
| 2026-05-04 15:49 | 51.14787 | -0.21156 | 200 ft | 14 kts | 245° |
| 2026-05-04 15:50 | 51.14761 | -0.21309 | 198 ft | 14 kts | 259° |
| 2026-05-04 15:50 | 51.14731 | -0.21396 | 198 ft | 6 kts | 190° |
| 2026-05-04 15:50 | 51.14729 | -0.21396 | 198 ft | 0 kts | 188° |
| 2026-05-04 15:51 | 51.14725 | -0.21397 | 198 ft | 4 kts | 186° |
| 2026-05-04 15:52 | 51.14663 | -0.21364 | 198 ft | 15 kts | 136° |
| 2026-05-04 15:52 | 51.14602 | -0.21316 | 198 ft | 0 kts | 166° |
| 2026-05-04 15:53 | 51.14549 | -0.21282 | 206 ft | 16 kts | 142° |
| 2026-05-04 15:53 | 51.14520 | -0.21123 | 197 ft | 15 kts | 78° |
| 2026-05-04 15:53 | 51.14541 | -0.20972 | 205 ft | 15 kts | 77° |
| 2026-05-04 15:54 | 51.14607 | -0.20491 | 199 ft | 94 kts | 78° |
| 2026-05-04 15:54 | 51.14800 | -0.19030 | 640 ft | 155 kts | 78° |
| 2026-05-04 15:54 | 51.15007 | -0.17186 | 1771 ft | 184 kts | 80° |
| 2026-05-04 15:54 | 51.15250 | -0.15121 | 2974 ft | 195 kts | 78° |
| 2026-05-04 15:55 | 51.15484 | -0.12910 | 4052 ft | 211 kts | 80° |
| 2026-05-04 15:55 | 51.15726 | -0.10572 | 5229 ft | 217 kts | 79° |
| 2026-05-04 15:55 | 51.15995 | -0.08020 | 5824 ft | 253 kts | 79° |
| 2026-05-04 15:55 | 51.16363 | -0.05085 | 5991 ft | 283 kts | 77° |
| 2026-05-04 15:56 | 51.16682 | -0.02033 | 5942 ft | 271 kts | 85° |
| 2026-05-04 15:56 | 51.16727 | 0.00849 | 6001 ft | 257 kts | 86° |
| 2026-05-04 15:56 | 51.16842 | 0.03668 | 5996 ft | 254 kts | 88° |
| 2026-05-04 15:56 | 51.16753 | 0.06474 | 5995 ft | 252 kts | 93° |
| 2026-05-04 15:57 | 51.16661 | 0.09272 | 6320 ft | 257 kts | 91° |
| 2026-05-04 15:57 | 51.16608 | 0.12174 | 7337 ft | 265 kts | 91° |
| 2026-05-04 15:57 | 51.16556 | 0.15123 | 8523 ft | 268 kts | 91° |
| 2026-05-04 15:57 | 51.16626 | 0.18045 | 9608 ft | 274 kts | 89° |
| 2026-05-04 15:58 | 51.16584 | 0.21186 | 10707 ft | 278 kts | 92° |
| 2026-05-04 15:58 | 51.16561 | 0.24296 | 11770 ft | 283 kts | 90° |
| 2026-05-04 15:58 | 51.16572 | 0.27454 | 12831 ft | 287 kts | 90° |
| 2026-05-04 15:58 | 51.16590 | 0.30663 | 13879 ft | 292 kts | 90° |
| 2026-05-04 15:59 | 51.16588 | 0.33928 | 14783 ft | 297 kts | 91° |
| 2026-05-04 15:59 | 51.16588 | 0.37240 | 15710 ft | 301 kts | 91° |
| 2026-05-04 15:59 | 51.16588 | 0.40595 | 16622 ft | 305 kts | 91° |
| 2026-05-04 15:59 | 51.16585 | 0.43994 | 17549 ft | 309 kts | 92° |
| 2026-05-04 16:00 | 51.16586 | 0.47446 | 18455 ft | 314 kts | 92° |
| 2026-05-04 16:00 | 51.16494 | 0.50938 | 19255 ft | 318 kts | 95° |
| 2026-05-04 16:00 | 51.16447 | 0.54493 | 20082 ft | 324 kts | 92° |
| 2026-05-04 16:00 | 51.16433 | 0.58101 | 20951 ft | 328 kts | 93° |
| 2026-05-04 16:01 | 51.16371 | 0.61762 | 21826 ft | 333 kts | 95° |
| 2026-05-04 16:01 | 51.16286 | 0.65476 | 22706 ft | 338 kts | 95° |
| 2026-05-04 16:01 | 51.16215 | 0.69250 | 23579 ft | 344 kts | 94° |
| 2026-05-04 16:01 | 51.16151 | 0.73081 | 24294 ft | 348 kts | 95° |
| 2026-05-04 16:02 | 51.16076 | 0.76952 | 25002 ft | 351 kts | 95° |
| 2026-05-04 16:02 | 51.16000 | 0.80860 | 25686 ft | 355 kts | 95° |
| 2026-05-04 16:02 | 51.15843 | 0.88788 | 26993 ft | 362 kts | 95° |
| 2026-05-04 16:03 | 51.15763 | 0.92815 | 27632 ft | 365 kts | 95° |
| 2026-05-04 16:03 | 51.15676 | 0.96873 | 28234 ft | 369 kts | 95° |
| 2026-05-04 16:03 | 51.15593 | 1.00970 | 28926 ft | 369 kts | 95° |
| 2026-05-04 16:03 | 51.15506 | 1.05048 | 29682 ft | 368 kts | 95° |
| 2026-05-04 16:04 | 51.15417 | 1.09114 | 30348 ft | 367 kts | 95° |
| 2026-05-04 16:04 | 51.15234 | 1.17301 | 30995 ft | 380 kts | 96° |
| 2026-05-04 16:04 | 51.15134 | 1.21592 | 31006 ft | 394 kts | 95° |
| 2026-05-04 16:05 | 51.14935 | 1.30433 | 31004 ft | 401 kts | 95° |
| 2026-05-04 16:06 | 51.14607 | 1.43800 | 30992 ft | 405 kts | 95° |
| 2026-05-04 16:07 | 51.14150 | 1.61732 | 31001 ft | 408 kts | 96° |
| 2026-05-04 16:08 | 51.13659 | 1.79803 | 30994 ft | 409 kts | 96° |
| 2026-05-04 16:09 | 51.12959 | 2.02424 | 30989 ft | 408 kts | 99° |
| 2026-05-04 16:10 | 51.11989 | 2.20451 | 30989 ft | 409 kts | 99° |
| 2026-05-04 16:11 | 51.10989 | 2.38483 | 30978 ft | 409 kts | 99° |
| 2026-05-04 16:12 | 51.09344 | 2.65502 | 30978 ft | 406 kts | 106° |
| 2026-05-04 16:13 | 51.06312 | 2.82644 | 30981 ft | 404 kts | 110° |
| 2026-05-04 16:14 | 51.03183 | 2.99796 | 30979 ft | 404 kts | 110° |
| 2026-05-04 16:16 | 50.99238 | 3.21202 | 30968 ft | 404 kts | 111° |
| 2026-05-04 16:17 | 50.95252 | 3.42590 | 30954 ft | 404 kts | 111° |
| 2026-05-04 16:18 | 50.92303 | 3.58247 | 30952 ft | 405 kts | 111° |
| 2026-05-04 16:19 | 50.88236 | 3.79636 | 30953 ft | 406 kts | 111° |
| 2026-05-04 16:20 | 50.84117 | 4.01042 | 30952 ft | 407 kts | 111° |
| 2026-05-04 16:22 | 50.79950 | 4.22464 | 30955 ft | 408 kts | 112° |
| 2026-05-04 16:23 | 50.74893 | 4.48156 | 30954 ft | 408 kts | 112° |
| 2026-05-04 16:25 | 50.69783 | 4.73756 | 30955 ft | 409 kts | 113° |
| 2026-05-04 16:26 | 50.63714 | 5.03646 | 30973 ft | 409 kts | 114° |
| 2026-05-04 16:28 | 50.59312 | 5.24957 | 30985 ft | 409 kts | 114° |
| 2026-05-04 16:29 | 50.53070 | 5.54794 | 30982 ft | 411 kts | 114° |
| 2026-05-04 16:31 | 50.48876 | 5.76293 | 30976 ft | 412 kts | 112° |
| 2026-05-04 16:32 | 50.43997 | 6.02187 | 30967 ft | 413 kts | 112° |
| 2026-05-04 16:33 | 50.40708 | 6.19450 | 30964 ft | 414 kts | 112° |
| 2026-05-04 16:34 | 50.38219 | 6.32401 | 30962 ft | 414 kts | 112° |
| 2026-05-04 16:35 | 50.36166 | 6.45540 | 30962 ft | 423 kts | 101° |
| 2026-05-04 16:35 | 50.35313 | 6.59281 | 30959 ft | 423 kts | 101° |
| 2026-05-04 16:36 | 50.34438 | 6.73032 | 30969 ft | 423 kts | 101° |
| 2026-05-04 16:37 | 50.33186 | 6.86634 | 30977 ft | 416 kts | 111° |
| 2026-05-04 16:38 | 50.28601 | 7.03017 | 30985 ft | 411 kts | 121° |
| 2026-05-04 16:39 | 50.22569 | 7.23185 | 30171 ft | 398 kts | 121° |
| 2026-05-04 16:40 | 50.20268 | 7.30813 | 28557 ft | 380 kts | 121° |
| 2026-05-04 16:40 | 50.18348 | 7.38406 | 26911 ft | 373 kts | 116° |
| 2026-05-04 16:41 | 50.16536 | 7.45889 | 25313 ft | 365 kts | 116° |
| 2026-05-04 16:41 | 50.13912 | 7.56883 | 22969 ft | 356 kts | 115° |
| 2026-05-04 16:42 | 50.11328 | 7.67575 | 20483 ft | 348 kts | 117° |
| 2026-05-04 16:43 | 50.08744 | 7.73765 | 18918 ft | 338 kts | 129° |
| 2026-05-04 16:43 | 50.06109 | 7.79738 | 17310 ft | 332 kts | 129° |
| 2026-05-04 16:43 | 50.04799 | 7.82669 | 16485 ft | 328 kts | 129° |
| 2026-05-04 16:44 | 49.99713 | 7.94074 | 13978 ft | 303 kts | 129° |
| 2026-05-04 16:45 | 49.97707 | 7.99517 | 13961 ft | 281 kts | 125° |
| 2026-05-04 16:46 | 49.94935 | 8.07150 | 13958 ft | 262 kts | 124° |
| 2026-05-04 16:46 | 49.93157 | 8.12079 | 13957 ft | 268 kts | 125° |
| 2026-05-04 16:47 | 49.91248 | 8.17348 | 13962 ft | 290 kts | 124° |
| 2026-05-04 16:47 | 49.89225 | 8.22949 | 13974 ft | 305 kts | 124° |
| 2026-05-04 16:48 | 49.88868 | 8.32840 | 13967 ft | 335 kts | 71° |
| 2026-05-04 16:48 | 49.89685 | 8.36226 | 13975 ft | 336 kts | 72° |
| 2026-05-04 16:49 | 49.91356 | 8.43063 | 13721 ft | 345 kts | 72° |
| 2026-05-04 16:49 | 49.93060 | 8.50151 | 13163 ft | 350 kts | 72° |
| 2026-05-04 16:50 | 49.94687 | 8.56924 | 12484 ft | 322 kts | 72° |
| 2026-05-04 16:50 | 49.96209 | 8.63287 | 11812 ft | 308 kts | 73° |
| 2026-05-04 16:51 | 49.97655 | 8.69348 | 11150 ft | 291 kts | 73° |
| 2026-05-04 16:51 | 49.98355 | 8.72270 | 10822 ft | 286 kts | 73° |
| 2026-05-04 16:51 | 49.99706 | 8.77984 | 10183 ft | 279 kts | 74° |
| 2026-05-04 16:52 | 50.00988 | 8.83382 | 9975 ft | 256 kts | 74° |
| 2026-05-04 16:52 | 50.01586 | 8.85917 | 9969 ft | 245 kts | 74° |
| 2026-05-04 16:53 | 50.02713 | 8.90696 | 9968 ft | 227 kts | 75° |
| 2026-05-04 16:53 | 50.04428 | 8.97977 | 9045 ft | 253 kts | 73° |
| 2026-05-04 16:54 | 50.05042 | 9.00577 | 8737 ft | 259 kts | 74° |
| 2026-05-04 16:55 | 50.07525 | 9.11194 | 7498 ft | 262 kts | 73° |
| 2026-05-04 16:55 | 50.08760 | 9.16482 | 7076 ft | 254 kts | 72° |
| 2026-05-04 16:56 | 50.09917 | 9.21468 | 7025 ft | 236 kts | 73° |
| 2026-05-04 16:56 | 50.12925 | 9.26099 | 7016 ft | 213 kts | 342° |
| 2026-05-04 16:57 | 50.14062 | 9.24886 | 7018 ft | 192 kts | 295° |
| 2026-05-04 16:57 | 50.14670 | 9.20998 | 7024 ft | 186 kts | 274° |
| 2026-05-04 16:58 | 50.15287 | 9.14801 | 6651 ft | 203 kts | 274° |
| 2026-05-04 16:58 | 50.15497 | 9.12604 | 6423 ft | 206 kts | 274° |
| 2026-05-04 16:59 | 50.15906 | 9.08341 | 6089 ft | 187 kts | 273° |
| 2026-05-04 17:00 | 50.14335 | 9.01917 | 6042 ft | 159 kts | 246° |
| 2026-05-04 17:00 | 50.13119 | 8.96849 | 6043 ft | 173 kts | 246° |
| 2026-05-04 17:01 | 50.12273 | 8.93257 | 6036 ft | 179 kts | 248° |
| 2026-05-04 17:01 | 50.11387 | 8.89532 | 5859 ft | 188 kts | 246° |
| 2026-05-04 17:02 | 50.10469 | 8.85821 | 5518 ft | 181 kts | 248° |
| 2026-05-04 17:02 | 50.09634 | 8.82214 | 4887 ft | 175 kts | 247° |
| 2026-05-04 17:03 | 50.09206 | 8.80427 | 4482 ft | 177 kts | 246° |
| 2026-05-04 17:03 | 50.08773 | 8.78625 | 4059 ft | 178 kts | 246° |
| 2026-05-04 17:03 | 50.07928 | 8.75080 | 3189 ft | 170 kts | 248° |
| 2026-05-04 17:04 | 50.07130 | 8.71725 | 2228 ft | 162 kts | 246° |
| 2026-05-04 17:04 | 50.06366 | 8.68530 | 1726 ft | 150 kts | 246° |
| 2026-05-04 17:05 | 50.05763 | 8.65978 | 1357 ft | 102 kts | 246° |
| 2026-05-04 17:05 | 50.05310 | 8.64121 | 1094 ft | 92 kts | 248° |
| 2026-05-04 17:06 | 50.04827 | 8.62190 | 903 ft | 102 kts | 254° |
| 2026-05-04 17:06 | 50.04587 | 8.61141 | 790 ft | 101 kts | 257° |
| 2026-05-04 17:07 | 50.04177 | 8.59411 | 525 ft | 104 kts | 256° |
| 2026-05-04 17:07 | 50.04017 | 8.58712 | 423 ft | 103 kts | 258° |
| 2026-05-04 17:07 | 50.03725 | 8.57470 | 358 ft | 75 kts | 249° |
| 2026-05-04 17:07 | 50.03578 | 8.56863 | 350 ft | 37 kts | 249° |
| 2026-05-04 17:08 | 50.03506 | 8.56561 | 352 ft | 25 kts | 249° |
| 2026-05-04 17:08 | 50.03387 | 8.56061 | 352 ft | 29 kts | 250° |
| 2026-05-04 17:08 | 50.03314 | 8.55771 | 349 ft | 27 kts | 245° |
| 2026-05-04 17:09 | 50.03255 | 8.55623 | 345 ft | 14 kts | 235° |
| 2026-05-04 17:09 | 50.03157 | 8.55480 | 345 ft | 21 kts | 225° |
| 2026-05-04 17:09 | 50.03056 | 8.55343 | 347 ft | 14 kts | 223° |
| 2026-05-04 17:10 | 50.03029 | 8.55301 | 347 ft | 11 kts | 230° |
| 2026-05-04 17:10 | 50.02804 | 8.54799 | 338 ft | 17 kts | 236° |
| 2026-05-04 17:11 | 50.02755 | 8.54606 | 333 ft | 23 kts | 250° |
| 2026-05-04 17:11 | 50.02694 | 8.54349 | 336 ft | 27 kts | 251° |
| 2026-05-04 17:11 | 50.02557 | 8.53734 | 331 ft | 33 kts | 250° |
| 2026-05-04 17:12 | 50.02477 | 8.53397 | 326 ft | 33 kts | 250° |
| 2026-05-04 17:12 | 50.02353 | 8.52907 | 341 ft | 14 kts | 235° |
| 2026-05-04 17:13 | 50.02103 | 8.52831 | 340 ft | 0 kts | 182° |